sensor_id;sensor_type;location;lat;lon;timestamp;pressure;altitude;pressure_sealevel;temperature;humidity
59487;BME280;45298;54.918;73.504;2023-05-10T00:01:58;101363.03;;;2.31;49.22
59487;BME280;45298;54.918;73.504;2023-05-10T00:04:27;101343.97;;;2.10;49.27
59487;BME280;45298;54.918;73.504;2023-05-10T00:06:55;101359.63;;;2.20;49.49
59487;BME280;45298;54.918;73.504;2023-05-10T00:09:24;101348.31;;;2.11;49.43
59487;BME280;45298;54.918;73.504;2023-05-10T00:11:53;101359.66;;;2.14;49.56
59487;BME280;45298;54.918;73.504;2023-05-10T00:14:22;101375.38;;;2.14;49.57
59487;BME280;45298;54.918;73.504;2023-05-10T00:16:51;101347.56;;;1.95;49.53
59487;BME280;45298;54.918;73.504;2023-05-10T00:19:20;101358.88;;;1.98;49.63
59487;BME280;45298;54.918;73.504;2023-05-10T00:21:48;101347.56;;;1.88;49.92
59487;BME280;45298;54.918;73.504;2023-05-10T00:24:17;101378.00;;;2.12;50.04
59487;BME280;45298;54.918;73.504;2023-05-10T00:26:46;101281.47;;;1.58;49.89
59487;BME280;45298;54.918;73.504;2023-05-10T00:29:15;101358.00;;;2.03;50.10
59487;BME280;45298;54.918;73.504;2023-05-10T00:31:44;101284.94;;;1.60;49.97
59487;BME280;45298;54.918;73.504;2023-05-10T00:34:13;101355.34;;;2.05;50.18
59487;BME280;45298;54.918;73.504;2023-05-10T00:36:42;101358.81;;;2.08;50.36
59487;BME280;45298;54.918;73.504;2023-05-10T00:39:11;101351.84;;;2.07;50.25
59487;BME280;45298;54.918;73.504;2023-05-10T00:41:40;101384.84;;;2.35;50.32
59487;BME280;45298;54.918;73.504;2023-05-10T00:44:09;101364.81;;;2.28;50.06
59487;BME280;45298;54.918;73.504;2023-05-10T00:46:38;101284.78;;;1.88;50.03
59487;BME280;45298;54.918;73.504;2023-05-10T00:49:07;101399.53;;;2.59;50.09
59487;BME280;45298;54.918;73.504;2023-05-10T00:51:36;101354.31;;;2.34;50.07
59487;BME280;45298;54.918;73.504;2023-05-10T00:54:05;101402.94;;;2.67;50.24
59487;BME280;45298;54.918;73.504;2023-05-10T00:56:35;101401.16;;;2.72;50.24
59487;BME280;45298;54.918;73.504;2023-05-10T00:59:04;101401.06;;;2.86;50.09
59487;BME280;45298;54.918;73.504;2023-05-10T01:01:34;101399.22;;;2.96;49.79
59487;BME280;45298;54.918;73.504;2023-05-10T01:04:04;101383.00;;;3.46;49.10
59487;BME280;45298;54.918;73.504;2023-05-10T01:06:33;101384.41;;;4.98;45.86
59487;BME280;45298;54.918;73.504;2023-05-10T01:09:01;101379.66;;;6.09;43.92
59487;BME280;45298;54.918;73.504;2023-05-10T01:11:30;101402.44;;;7.23;41.77
59487;BME280;45298;54.918;73.504;2023-05-10T01:13:59;101379.25;;;7.97;40.09
59487;BME280;45298;54.918;73.504;2023-05-10T01:16:29;101395.75;;;8.91;38.38
59487;BME280;45298;54.918;73.504;2023-05-10T01:19:01;101380.78;;;9.66;37.11
59487;BME280;45298;54.918;73.504;2023-05-10T01:22:07;101390.19;;;10.45;36.86
59487;BME280;45298;54.918;73.504;2023-05-10T01:27:53;101333.41;;;11.33;34.40
59487;BME280;45298;54.918;73.504;2023-05-10T01:30:51;101415.03;;;12.30;32.84
59487;BME280;45298;54.918;73.504;2023-05-10T01:33:41;101410.06;;;11.82;32.91
59487;BME280;45298;54.918;73.504;2023-05-10T01:38:50;101395.09;;;10.98;33.79
59487;BME280;45298;54.918;73.504;2023-05-10T01:41:32;101402.31;;;10.95;33.49
59487;BME280;45298;54.918;73.504;2023-05-10T01:44:24;101413.16;;;10.46;34.16
59487;BME280;45298;54.918;73.504;2023-05-10T01:47:28;101425.78;;;11.06;33.92
59487;BME280;45298;54.918;73.504;2023-05-10T01:50:02;101423.59;;;11.36;33.04
59487;BME280;45298;54.918;73.504;2023-05-10T01:52:36;101420.72;;;11.20;33.50
59487;BME280;45298;54.918;73.504;2023-05-10T01:55:09;101349.44;;;10.47;33.37
59487;BME280;45298;54.918;73.504;2023-05-10T01:57:40;101407.31;;;10.60;33.98
59487;BME280;45298;54.918;73.504;2023-05-10T02:00:11;101424.75;;;10.65;33.96
59487;BME280;45298;54.918;73.504;2023-05-10T02:02:44;101394.28;;;10.53;34.34
59487;BME280;45298;54.918;73.504;2023-05-10T02:05:15;101422.97;;;10.43;34.36
59487;BME280;45298;54.918;73.504;2023-05-10T02:07:45;101399.97;;;10.44;35.00
59487;BME280;45298;54.918;73.504;2023-05-10T02:10:14;101428.34;;;10.64;34.00
59487;BME280;45298;54.918;73.504;2023-05-10T02:12:47;101397.53;;;10.60;33.86
59487;BME280;45298;54.918;73.504;2023-05-10T02:15:22;101421.88;;;10.71;34.31
59487;BME280;45298;54.918;73.504;2023-05-10T02:17:54;101427.38;;;10.67;34.32
59487;BME280;45298;54.918;73.504;2023-05-10T02:20:25;101415.81;;;10.68;34.09
59487;BME280;45298;54.918;73.504;2023-05-10T02:22:55;101428.03;;;10.72;34.47
59487;BME280;45298;54.918;73.504;2023-05-10T02:25:26;101421.00;;;10.49;34.25
59487;BME280;45298;54.918;73.504;2023-05-10T02:27:56;101416.50;;;10.27;34.57
59487;BME280;45298;54.918;73.504;2023-05-10T02:30:26;101410.50;;;10.22;35.52
59487;BME280;45298;54.918;73.504;2023-05-10T02:32:57;101407.53;;;10.53;34.87
59487;BME280;45298;54.918;73.504;2023-05-10T02:35:27;101413.13;;;10.47;34.75
59487;BME280;45298;54.918;73.504;2023-05-10T02:37:57;101406.19;;;10.43;34.71
59487;BME280;45298;54.918;73.504;2023-05-10T02:40:28;101444.25;;;10.42;34.67
59487;BME280;45298;54.918;73.504;2023-05-10T02:42:59;101409.16;;;10.34;35.00
59487;BME280;45298;54.918;73.504;2023-05-10T02:45:31;101429.88;;;10.70;34.83
59487;BME280;45298;54.918;73.504;2023-05-10T02:48:02;101425.78;;;11.06;34.07
59487;BME280;45298;54.918;73.504;2023-05-10T02:50:33;101442.78;;;11.22;34.22
59487;BME280;45298;54.918;73.504;2023-05-10T02:53:06;101435.97;;;11.37;33.45
59487;BME280;45298;54.918;73.504;2023-05-10T02:55:38;101414.56;;;11.40;33.84
59487;BME280;45298;54.918;73.504;2023-05-10T02:58:09;101403.75;;;11.45;33.31
59487;BME280;45298;54.918;73.504;2023-05-10T03:00:38;101354.19;;;10.82;33.43
59487;BME280;45298;54.918;73.504;2023-05-10T03:03:07;101434.00;;;11.20;33.61
59487;BME280;45298;54.918;73.504;2023-05-10T03:05:36;101427.38;;;11.10;34.05
59487;BME280;45298;54.918;73.504;2023-05-10T03:08:06;101402.91;;;11.44;33.85
59487;BME280;45298;54.918;73.504;2023-05-10T03:10:55;101414.81;;;11.75;33.07
59487;BME280;45298;54.918;73.504;2023-05-10T03:13:48;101414.84;;;11.34;33.43
59487;BME280;45298;54.918;73.504;2023-05-10T03:16:40;101399.34;;;11.23;33.09
59487;BME280;45298;54.918;73.504;2023-05-10T03:19:24;101388.22;;;10.72;33.49
59487;BME280;45298;54.918;73.504;2023-05-10T03:21:58;101408.84;;;11.08;33.16
59487;BME280;45298;54.918;73.504;2023-05-10T03:24:33;101332.84;;;10.85;33.25
59487;BME280;45298;54.918;73.504;2023-05-10T03:27:03;101383.63;;;11.39;32.52
59487;BME280;45298;54.918;73.504;2023-05-10T03:29:34;101395.38;;;11.54;32.36
59487;BME280;45298;54.918;73.504;2023-05-10T03:32:04;101394.50;;;11.54;31.63
59487;BME280;45298;54.918;73.504;2023-05-10T03:34:33;101382.25;;;11.70;31.48
59487;BME280;45298;54.918;73.504;2023-05-10T03:37:02;101413.72;;;12.00;30.57
59487;BME280;45298;54.918;73.504;2023-05-10T03:39:31;101377.38;;;11.40;30.74
59487;BME280;45298;54.918;73.504;2023-05-10T03:42:02;101392.53;;;11.38;30.97
59487;BME280;45298;54.918;73.504;2023-05-10T03:44:31;101382.13;;;11.33;31.56
59487;BME280;45298;54.918;73.504;2023-05-10T03:47:01;101385.88;;;11.48;31.41
59487;BME280;45298;54.918;73.504;2023-05-10T03:49:31;101333.16;;;11.39;31.17
59487;BME280;45298;54.918;73.504;2023-05-10T03:52:01;101407.44;;;11.61;30.85
59487;BME280;45298;54.918;73.504;2023-05-10T03:54:31;101401.53;;;11.55;30.75
59487;BME280;45298;54.918;73.504;2023-05-10T03:57:00;101412.44;;;12.09;30.56
59487;BME280;45298;54.918;73.504;2023-05-10T03:59:31;101409.97;;;12.43;30.55
59487;BME280;45298;54.918;73.504;2023-05-10T04:02:00;101386.66;;;12.48;29.56
59487;BME280;45298;54.918;73.504;2023-05-10T04:04:30;101388.31;;;12.31;28.96
59487;BME280;45298;54.918;73.504;2023-05-10T04:06:58;101390.63;;;12.39;29.59
59487;BME280;45298;54.918;73.504;2023-05-10T04:09:28;101325.16;;;11.98;29.64
59487;BME280;45298;54.918;73.504;2023-05-10T04:11:59;101384.06;;;12.46;28.25
59487;BME280;45298;54.918;73.504;2023-05-10T04:14:30;101392.78;;;12.67;28.57
59487;BME280;45298;54.918;73.504;2023-05-10T04:16:59;101400.44;;;13.10;28.55
59487;BME280;45298;54.918;73.504;2023-05-10T04:19:29;101369.56;;;13.24;28.34
59487;BME280;45298;54.918;73.504;2023-05-10T04:21:58;101396.06;;;13.78;28.66
59487;BME280;45298;54.918;73.504;2023-05-10T04:24:27;101371.56;;;13.87;28.40
59487;BME280;45298;54.918;73.504;2023-05-10T04:26:56;101377.50;;;14.25;28.05
59487;BME280;45298;54.918;73.504;2023-05-10T04:29:28;101369.06;;;14.48;26.84
59487;BME280;45298;54.918;73.504;2023-05-10T04:31:56;101355.47;;;14.37;26.55
59487;BME280;45298;54.918;73.504;2023-05-10T04:34:26;101358.44;;;14.16;27.15
59487;BME280;45298;54.918;73.504;2023-05-10T04:36:54;101344.28;;;13.66;26.75
59487;BME280;45298;54.918;73.504;2023-05-10T04:39:24;101362.09;;;13.48;26.50
59487;BME280;45298;54.918;73.504;2023-05-10T04:41:53;101378.41;;;13.07;25.96
59487;BME280;45298;54.918;73.504;2023-05-10T04:44:22;101355.47;;;13.04;26.70
59487;BME280;45298;54.918;73.504;2023-05-10T04:46:50;101337.69;;;13.22;26.70
59487;BME280;45298;54.918;73.504;2023-05-10T04:49:19;101342.97;;;13.40;26.27
59487;BME280;45298;54.918;73.504;2023-05-10T04:51:51;101334.63;;;13.12;26.38
59487;BME280;45298;54.918;73.504;2023-05-10T04:54:20;101358.69;;;12.93;26.12
59487;BME280;45298;54.918;73.504;2023-05-10T04:56:49;101356.66;;;13.16;25.70
59487;BME280;45298;54.918;73.504;2023-05-10T04:59:17;101331.88;;;13.14;26.79
59487;BME280;45298;54.918;73.504;2023-05-10T05:01:46;101362.78;;;13.85;26.65
59487;BME280;45298;54.918;73.504;2023-05-10T05:04:15;101359.09;;;14.36;26.36
59487;BME280;45298;54.918;73.504;2023-05-10T05:06:44;101340.53;;;14.18;25.62
59487;BME280;45298;54.918;73.504;2023-05-10T06:18:18;101289.72;;;15.40;23.67
59487;BME280;45298;54.918;73.504;2023-05-10T06:20:49;101261.94;;;15.14;23.42
59487;BME280;45298;54.918;73.504;2023-05-10T06:23:18;101256.13;;;14.93;23.33
59487;BME280;45298;54.918;73.504;2023-05-10T06:25:48;101258.03;;;15.34;23.10
59487;BME280;45298;54.918;73.504;2023-05-10T06:28:17;101272.75;;;15.13;22.70
59487;BME280;45298;54.918;73.504;2023-05-10T06:30:46;101261.69;;;15.19;23.00
59487;BME280;45298;54.918;73.504;2023-05-10T06:33:16;101246.44;;;15.63;23.14
59487;BME280;45298;54.918;73.504;2023-05-10T06:35:44;101227.91;;;15.60;23.67
59487;BME280;45298;54.918;73.504;2023-05-10T06:38:13;101204.78;;;15.31;23.32
59487;BME280;45298;54.918;73.504;2023-05-10T06:40:42;101244.47;;;15.52;22.84
59487;BME280;45298;54.918;73.504;2023-05-10T06:43:11;101233.78;;;15.08;22.80
59487;BME280;45298;54.918;73.504;2023-05-10T06:45:40;101254.81;;;15.15;23.17
59487;BME280;45298;54.918;73.504;2023-05-10T06:48:12;101237.19;;;14.81;22.91
59487;BME280;45298;54.918;73.504;2023-05-10T06:50:40;101239.34;;;14.60;23.44
59487;BME280;45298;54.918;73.504;2023-05-10T06:53:09;101220.81;;;14.88;23.98
59487;BME280;45298;54.918;73.504;2023-05-10T06:55:39;101236.78;;;15.60;22.62
59487;BME280;45298;54.918;73.504;2023-05-10T06:58:10;101210.38;;;15.97;22.39
59487;BME280;45298;54.918;73.504;2023-05-10T07:00:39;101157.06;;;15.52;22.17
59487;BME280;45298;54.918;73.504;2023-05-10T07:03:09;101203.91;;;15.87;21.93
59487;BME280;45298;54.918;73.504;2023-05-10T07:05:39;101200.16;;;16.30;21.97
59487;BME280;45298;54.918;73.504;2023-05-10T07:08:08;101158.56;;;16.11;22.07
59487;BME280;45298;54.918;73.504;2023-05-10T07:10:37;101201.47;;;16.50;21.97
59487;BME280;45298;54.918;73.504;2023-05-10T07:13:06;101201.72;;;16.73;21.84
59487;BME280;45298;54.918;73.504;2023-05-10T07:15:35;101196.66;;;16.94;21.62
59487;BME280;45298;54.918;73.504;2023-05-10T07:18:04;101166.56;;;17.03;21.25
59487;BME280;45298;54.918;73.504;2023-05-10T07:20:35;101197.59;;;17.32;21.23
59487;BME280;45298;54.918;73.504;2023-05-10T07:23:03;101140.81;;;16.88;21.33
59487;BME280;45298;54.918;73.504;2023-05-10T07:25:32;101179.41;;;17.11;20.91
59487;BME280;45298;54.918;73.504;2023-05-10T07:28:01;101197.09;;;16.49;20.65
59487;BME280;45298;54.918;73.504;2023-05-10T07:30:30;101194.56;;;16.20;21.28
59487;BME280;45298;54.918;73.504;2023-05-10T07:32:59;101179.41;;;16.34;20.89
59487;BME280;45298;54.918;73.504;2023-05-10T07:35:28;101182.19;;;16.58;20.93
59487;BME280;45298;54.918;73.504;2023-05-10T07:37:57;101171.50;;;16.71;21.86
59487;BME280;45298;54.918;73.504;2023-05-10T07:40:26;101188.44;;;17.10;20.81
59487;BME280;45298;54.918;73.504;2023-05-10T07:42:55;101174.66;;;17.28;21.02
59487;BME280;45298;54.918;73.504;2023-05-10T07:45:24;101155.56;;;17.32;20.83
59487;BME280;45298;54.918;73.504;2023-05-10T07:47:53;101149.97;;;17.35;20.48
59487;BME280;45298;54.918;73.504;2023-05-10T07:50:22;101107.09;;;17.22;20.34
59487;BME280;45298;54.918;73.504;2023-05-10T07:52:51;101148.66;;;17.41;20.09
59487;BME280;45298;54.918;73.504;2023-05-10T07:55:20;101137.47;;;17.47;20.73
59487;BME280;45298;54.918;73.504;2023-05-10T07:57:51;101143.75;;;17.83;20.39
59487;BME280;45298;54.918;73.504;2023-05-10T08:00:20;101144.31;;;18.00;19.82
59487;BME280;45298;54.918;73.504;2023-05-10T08:02:49;101132.66;;;18.12;20.23
59487;BME280;45298;54.918;73.504;2023-05-10T08:05:18;101141.63;;;18.00;20.08
59487;BME280;45298;54.918;73.504;2023-05-10T08:07:47;101136.22;;;17.89;19.95
59487;BME280;45298;54.918;73.504;2023-05-10T08:10:16;101126.16;;;17.79;19.66
59487;BME280;45298;54.918;73.504;2023-05-10T08:12:45;101113.16;;;17.62;20.52
59487;BME280;45298;54.918;73.504;2023-05-10T08:15:14;101137.88;;;17.54;20.13
59487;BME280;45298;54.918;73.504;2023-05-10T08:17:43;101112.44;;;17.35;20.53
59487;BME280;45298;54.918;73.504;2023-05-10T08:20:12;101121.00;;;17.41;20.60
59487;BME280;45298;54.918;73.504;2023-05-10T08:22:45;101119.06;;;17.43;20.52
59487;BME280;45298;54.918;73.504;2023-05-10T08:25:17;101104.88;;;17.16;20.76
59487;BME280;45298;54.918;73.504;2023-05-10T08:27:46;101109.19;;;17.06;20.50
59487;BME280;45298;54.918;73.504;2023-05-10T08:30:15;101110.75;;;17.21;20.34
59487;BME280;45298;54.918;73.504;2023-05-10T08:32:44;101104.25;;;17.37;20.96
59487;BME280;45298;54.918;73.504;2023-05-10T08:35:16;101081.41;;;17.56;20.38
59487;BME280;45298;54.918;73.504;2023-05-10T08:37:45;101078.81;;;17.18;20.17
59487;BME280;45298;54.918;73.504;2023-05-10T08:40:14;101082.13;;;17.46;20.24
59487;BME280;45298;54.918;73.504;2023-05-10T08:42:51;101086.19;;;17.88;20.15
59487;BME280;45298;54.918;73.504;2023-05-10T08:45:23;101082.38;;;18.15;20.05
59487;BME280;45298;54.918;73.504;2023-05-10T08:47:53;101084.13;;;18.38;20.38
59487;BME280;45298;54.918;73.504;2023-05-10T08:50:22;101069.72;;;18.62;19.72
59487;BME280;45298;54.918;73.504;2023-05-10T08:52:55;101064.09;;;18.65;19.30
59487;BME280;45298;54.918;73.504;2023-05-10T08:55:26;101058.94;;;18.73;19.61
59487;BME280;45298;54.918;73.504;2023-05-10T08:57:54;101056.03;;;18.77;19.32
59487;BME280;45298;54.918;73.504;2023-05-10T09:00:23;101052.88;;;18.60;18.97
59487;BME280;45298;54.918;73.504;2023-05-10T09:02:53;101046.50;;;18.38;19.02
59487;BME280;45298;54.918;73.504;2023-05-10T09:05:23;101050.19;;;18.49;19.05
59487;BME280;45298;54.918;73.504;2023-05-10T09:07:52;101001.47;;;18.19;19.21
59487;BME280;45298;54.918;73.504;2023-05-10T09:10:21;101034.53;;;18.65;19.46
59487;BME280;45298;54.918;73.504;2023-05-10T09:12:50;101016.09;;;18.72;18.98
59487;BME280;45298;54.918;73.504;2023-05-10T09:15:19;101032.09;;;18.39;19.32
59487;BME280;45298;54.918;73.504;2023-05-10T09:17:49;101010.50;;;18.41;19.25
59487;BME280;45298;54.918;73.504;2023-05-10T09:20:18;100978.16;;;18.20;19.28
59487;BME280;45298;54.918;73.504;2023-05-10T09:22:47;101014.75;;;18.66;18.96
59487;BME280;45298;54.918;73.504;2023-05-10T09:25:16;101018.41;;;18.77;18.97
59487;BME280;45298;54.918;73.504;2023-05-10T09:27:47;101016.19;;;18.82;18.88
59487;BME280;45298;54.918;73.504;2023-05-10T09:30:26;100957.31;;;18.23;18.69
59487;BME280;45298;54.918;73.504;2023-05-10T09:32:57;100992.69;;;18.40;18.89
59487;BME280;45298;54.918;73.504;2023-05-10T09:35:31;100985.13;;;18.34;19.25
59487;BME280;45298;54.918;73.504;2023-05-10T09:38:02;100998.06;;;18.40;18.92
59487;BME280;45298;54.918;73.504;2023-05-10T09:40:32;100977.31;;;18.31;19.09
59487;BME280;45298;54.918;73.504;2023-05-10T09:43:03;101006.69;;;18.55;18.92
59487;BME280;45298;54.918;73.504;2023-05-10T09:45:35;100980.59;;;18.34;18.63
59487;BME280;45298;54.918;73.504;2023-05-10T09:48:06;100972.06;;;18.29;18.97
59487;BME280;45298;54.918;73.504;2023-05-10T09:50:35;100928.75;;;18.11;19.62
59487;BME280;45298;54.918;73.504;2023-05-10T09:53:04;100976.78;;;18.48;19.19
59487;BME280;45298;54.918;73.504;2023-05-10T09:58:05;100981.44;;;18.57;19.33
59487;BME280;45298;54.918;73.504;2023-05-10T10:00:45;100969.22;;;18.53;19.34
59487;BME280;45298;54.918;73.504;2023-05-10T10:03:20;100954.22;;;18.51;18.87
59487;BME280;45298;54.918;73.504;2023-05-10T10:05:50;100961.41;;;18.62;18.80
59487;BME280;45298;54.918;73.504;2023-05-10T10:08:19;100966.66;;;18.40;19.49
59487;BME280;45298;54.918;73.504;2023-05-10T10:10:50;100954.72;;;18.22;19.28
59487;BME280;45298;54.918;73.504;2023-05-10T10:13:19;100979.63;;;18.24;19.00
59487;BME280;45298;54.918;73.504;2023-05-10T10:15:49;100956.69;;;18.08;19.36
59487;BME280;45298;54.918;73.504;2023-05-10T10:18:19;100949.56;;;17.96;19.23
59487;BME280;45298;54.918;73.504;2023-05-10T10:20:52;100948.75;;;18.07;19.27
59487;BME280;45298;54.918;73.504;2023-05-10T10:23:22;100950.94;;;18.13;20.24
59487;BME280;45298;54.918;73.504;2023-05-10T10:25:53;100968.63;;;18.16;20.25
59487;BME280;45298;54.918;73.504;2023-05-10T10:31:45;100956.69;;;18.20;19.46
59487;BME280;45298;54.918;73.504;2023-05-10T10:34:25;100947.47;;;17.88;19.87
59487;BME280;45298;54.918;73.504;2023-05-10T10:36:58;100945.66;;;17.89;20.09
59487;BME280;45298;54.918;73.504;2023-05-10T10:39:32;100955.19;;;17.93;19.95
59487;BME280;45298;54.918;73.504;2023-05-10T10:42:01;100943.56;;;17.70;19.80
59487;BME280;45298;54.918;73.504;2023-05-10T10:55:12;100885.75;;;17.54;20.20
59487;BME280;45298;54.918;73.504;2023-05-10T10:57:47;100950.31;;;17.98;20.22
59487;BME280;45298;54.918;73.504;2023-05-10T11:00:27;100950.31;;;17.98;19.98
59487;BME280;45298;54.918;73.504;2023-05-10T11:03:04;100936.88;;;17.87;20.38
59487;BME280;45298;54.918;73.504;2023-05-10T11:05:39;100947.13;;;17.81;20.67
59487;BME280;45298;54.918;73.504;2023-05-10T11:10:48;100938.78;;;17.62;20.47
59487;BME280;45298;54.918;73.504;2023-05-10T11:13:47;100921.13;;;17.59;20.18
59487;BME280;45298;54.918;73.504;2023-05-10T11:16:18;100949.66;;;17.60;20.31
59487;BME280;45298;54.918;73.504;2023-05-10T11:19:07;100942.06;;;17.43;20.71
59487;BME280;45298;54.918;73.504;2023-05-10T11:21:50;100938.34;;;17.32;20.67
59487;BME280;45298;54.918;73.504;2023-05-10T11:24:27;100940.34;;;17.42;20.47
59487;BME280;45298;54.918;73.504;2023-05-10T11:26:56;100941.41;;;17.39;19.99
59487;BME280;45298;54.918;73.504;2023-05-10T11:29:25;100912.38;;;17.21;20.58
59487;BME280;45298;54.918;73.504;2023-05-10T11:31:57;100919.59;;;17.32;20.57
59487;BME280;45298;54.918;73.504;2023-05-10T11:34:28;100937.03;;;17.38;19.79
59487;BME280;45298;54.918;73.504;2023-05-10T11:36:59;100923.38;;;17.30;20.22
59487;BME280;45298;54.918;73.504;2023-05-10T11:39:31;100926.44;;;17.36;19.81
59487;BME280;45298;54.918;73.504;2023-05-10T11:42:01;100933.75;;;17.34;19.90
59487;BME280;45298;54.918;73.504;2023-05-10T11:44:32;100921.38;;;17.20;20.41
59487;BME280;45298;54.918;73.504;2023-05-10T11:47:01;100872.63;;;16.91;20.17
59487;BME280;45298;54.918;73.504;2023-05-10T11:49:32;100903.91;;;17.03;20.03
59487;BME280;45298;54.918;73.504;2023-05-10T11:52:07;100924.41;;;17.16;20.16
59487;BME280;45298;54.918;73.504;2023-05-10T11:54:37;100918.44;;;17.12;20.07
59487;BME280;45298;54.918;73.504;2023-05-10T11:57:06;100838.44;;;16.59;19.89
59487;BME280;45298;54.918;73.504;2023-05-10T11:59:37;100927.22;;;17.14;19.66
59487;BME280;45298;54.918;73.504;2023-05-10T12:02:10;100925.53;;;17.13;19.70
59487;BME280;45298;54.918;73.504;2023-05-10T12:04:39;100926.72;;;17.09;20.08
59487;BME280;45298;54.918;73.504;2023-05-10T12:07:09;100904.38;;;16.97;20.58
59487;BME280;45298;54.918;73.504;2023-05-10T12:09:43;100928.28;;;17.12;20.23
59487;BME280;45298;54.918;73.504;2023-05-10T12:12:16;100919.72;;;16.95;20.53
59487;BME280;45298;54.918;73.504;2023-05-10T12:14:50;100897.78;;;16.77;20.46
59487;BME280;45298;54.918;73.504;2023-05-10T12:17:19;100902.66;;;16.72;19.93
59487;BME280;45298;54.918;73.504;2023-05-10T12:19:48;100910.69;;;16.72;20.42
59487;BME280;45298;54.918;73.504;2023-05-10T12:22:20;100910.03;;;16.68;20.45
59487;BME280;45298;54.918;73.504;2023-05-10T12:24:50;100907.50;;;16.67;19.96
59487;BME280;45298;54.918;73.504;2023-05-10T12:27:19;100898.50;;;16.68;20.77
59487;BME280;45298;54.918;73.504;2023-05-10T12:29:49;100892.84;;;16.59;20.90
59487;BME280;45298;54.918;73.504;2023-05-10T12:32:19;100892.09;;;16.57;21.01
59487;BME280;45298;54.918;73.504;2023-05-10T12:34:54;100882.59;;;16.53;20.33
59487;BME280;45298;54.918;73.504;2023-05-10T12:37:27;100870.31;;;16.38;20.26
59487;BME280;45298;54.918;73.504;2023-05-10T12:39:57;100872.91;;;16.39;20.32
59487;BME280;45298;54.918;73.504;2023-05-10T12:42:26;100873.00;;;16.38;20.58
59487;BME280;45298;54.918;73.504;2023-05-10T12:44:56;100868.84;;;16.34;20.71
59487;BME280;45298;54.918;73.504;2023-05-10T12:47:25;100872.59;;;16.31;20.99
59487;BME280;45298;54.918;73.504;2023-05-10T12:49:55;100864.78;;;16.28;21.28
59487;BME280;45298;54.918;73.504;2023-05-10T12:52:27;100852.44;;;16.14;20.90
59487;BME280;45298;54.918;73.504;2023-05-10T12:54:58;100869.63;;;16.23;20.96
59487;BME280;45298;54.918;73.504;2023-05-10T12:57:29;100853.41;;;16.13;21.63
59487;BME280;45298;54.918;73.504;2023-05-10T12:59:59;100857.25;;;16.09;21.61
59487;BME280;45298;54.918;73.504;2023-05-10T13:02:28;100839.41;;;15.96;21.69
59487;BME280;45298;54.918;73.504;2023-05-10T13:04:58;100836.63;;;15.98;21.92
59487;BME280;45298;54.918;73.504;2023-05-10T13:07:28;100828.59;;;15.85;21.89
59487;BME280;45298;54.918;73.504;2023-05-10T13:10:00;100839.84;;;15.90;22.75
59487;BME280;45298;54.918;73.504;2023-05-10T13:12:29;100813.53;;;15.71;22.66
59487;BME280;45298;54.918;73.504;2023-05-10T13:14:58;100840.47;;;15.81;22.78
59487;BME280;45298;54.918;73.504;2023-05-10T13:17:28;100817.72;;;15.62;23.11
59487;BME280;45298;54.918;73.504;2023-05-10T13:20:00;100817.72;;;15.62;22.79
59487;BME280;45298;54.918;73.504;2023-05-10T13:22:29;100807.91;;;15.50;23.56
59487;BME280;45298;54.918;73.504;2023-05-10T13:25:07;100819.44;;;15.50;23.58
59487;BME280;45298;54.918;73.504;2023-05-10T13:27:41;100781.72;;;15.29;23.57
59487;BME280;45298;54.918;73.504;2023-05-10T13:30:10;100815.91;;;15.37;23.48
59487;BME280;45298;54.918;73.504;2023-05-10T13:32:40;100796.38;;;15.23;24.19
59487;BME280;45298;54.918;73.504;2023-05-10T13:35:11;100810.78;;;15.21;23.55
59487;BME280;45298;54.918;73.504;2023-05-10T13:37:40;100811.78;;;15.20;24.31
59487;BME280;45298;54.918;73.504;2023-05-10T13:40:09;100810.78;;;15.21;24.05
59487;BME280;45298;54.918;73.504;2023-05-10T13:42:38;100741.84;;;14.74;25.17
59487;BME280;45298;54.918;73.504;2023-05-10T13:45:08;100743.88;;;14.71;25.48
59487;BME280;45298;54.918;73.504;2023-05-10T13:47:37;100731.75;;;14.65;25.35
59487;BME280;45298;54.918;73.504;2023-05-10T13:50:07;100795.59;;;14.95;24.85
59487;BME280;45298;54.918;73.504;2023-05-10T13:52:36;100782.13;;;14.84;24.93
59487;BME280;45298;54.918;73.504;2023-05-10T13:55:08;100767.69;;;14.74;25.16
59487;BME280;45298;54.918;73.504;2023-05-10T13:57:37;100770.75;;;14.68;25.46
59487;BME280;45298;54.918;73.504;2023-05-10T14:00:07;100792.59;;;14.74;25.22
59487;BME280;45298;54.918;73.504;2023-05-10T14:02:40;100782.38;;;14.54;25.73
59487;BME280;45298;54.918;73.504;2023-05-10T14:05:16;100787.59;;;14.55;26.38
59487;BME280;45298;54.918;73.504;2023-05-10T14:07:51;100784.16;;;14.53;26.18
59487;BME280;45298;54.918;73.504;2023-05-10T14:10:20;100788.84;;;14.49;26.75
59487;BME280;45298;54.918;73.504;2023-05-10T14:12:50;100801.66;;;14.44;26.66
59487;BME280;45298;54.918;73.504;2023-05-10T14:15:19;100800.16;;;14.40;26.73
59487;BME280;45298;54.918;73.504;2023-05-10T14:17:48;100801.41;;;14.34;26.99
59487;BME280;45298;54.918;73.504;2023-05-10T14:20:17;100788.75;;;14.24;25.66
59487;BME280;45298;54.918;73.504;2023-05-10T14:22:46;100796.63;;;14.12;26.69
59487;BME280;45298;54.918;73.504;2023-05-10T14:25:15;100761.44;;;13.93;27.48
59487;BME280;45298;54.918;73.504;2023-05-10T14:27:45;100776.28;;;13.97;27.17
59487;BME280;45298;54.918;73.504;2023-05-10T14:30:14;100789.13;;;14.04;28.36
59487;BME280;45298;54.918;73.504;2023-05-10T14:32:43;100732.16;;;13.64;27.88
59487;BME280;45298;54.918;73.504;2023-05-10T14:35:12;100775.84;;;13.90;28.08